createdAt,value
2019-03-23T00:02:22.164Z,20.30
2019-03-23T00:04:50.135Z,14.13
2019-03-23T00:07:18.134Z,19.12
2019-03-23T00:09:46.172Z,18.42
2019-03-23T00:12:14.164Z,17.50
2019-03-23T00:14:42.135Z,15.63
2019-03-23T00:17:10.111Z,18.55
2019-03-23T00:19:38.099Z,18.60
2019-03-23T00:22:06.067Z,22.58
2019-03-23T00:24:34.039Z,14.15
2019-03-23T00:27:02.059Z,19.60
2019-03-23T00:29:30.067Z,19.27
2019-03-23T00:31:58.042Z,20.55
2019-03-23T00:34:26.024Z,19.57
2019-03-23T00:36:53.991Z,18.52
2019-03-23T00:39:21.963Z,20.02
2019-03-23T00:41:49.941Z,18.82
2019-03-23T00:44:17.917Z,17.60
2019-03-23T00:46:45.887Z,14.73
2019-03-23T00:49:13.867Z,16.30
2019-03-23T00:51:41.843Z,21.57
2019-03-23T00:54:09.845Z,15.10
2019-03-23T00:56:37.813Z,14.10
2019-03-23T00:59:05.793Z,13.40
2019-03-23T01:01:33.779Z,17.17
2019-03-23T01:04:01.752Z,12.95
2019-03-23T01:06:29.746Z,16.35
2019-03-23T01:08:57.718Z,17.32
2019-03-23T01:11:25.711Z,16.45
2019-03-23T01:13:53.692Z,16.40
2019-03-23T01:16:21.653Z,12.82
2019-03-23T01:18:49.911Z,15.65
2019-03-23T01:21:17.883Z,17.37
2019-03-23T01:23:45.847Z,17.57
2019-03-23T01:26:13.897Z,21.45
2019-03-23T01:28:41.984Z,16.00
2019-03-23T01:31:09.955Z,21.97
2019-03-23T01:33:37.944Z,20.43
2019-03-23T01:36:05.911Z,22.10
2019-03-23T01:38:33.883Z,14.87
2019-03-23T01:41:01.860Z,18.80
2019-03-23T01:43:29.838Z,16.42
2019-03-23T01:45:57.799Z,15.32
2019-03-23T01:48:25.774Z,18.92
2019-03-23T01:50:53.764Z,16.82
2019-03-23T01:53:21.729Z,16.90
2019-03-23T01:55:49.696Z,16.50
2019-03-23T01:58:17.674Z,16.42
2019-03-23T02:00:45.659Z,18.07
2019-03-23T02:03:13.625Z,17.77
2019-03-23T02:05:41.600Z,14.75
2019-03-23T02:08:09.579Z,17.05
2019-03-23T02:10:37.559Z,16.73
2019-03-23T02:13:05.554Z,19.35
2019-03-23T02:15:33.507Z,20.08
2019-03-23T02:18:01.479Z,21.12
2019-03-23T02:20:29.444Z,18.48
2019-03-23T02:22:57.429Z,19.77
2019-03-23T02:25:25.393Z,18.70
2019-03-23T02:27:53.375Z,17.67
2019-03-23T02:30:21.354Z,20.62
2019-03-23T02:32:49.343Z,22.60
2019-03-23T02:35:17.298Z,21.90
2019-03-23T02:37:45.280Z,15.80
2019-03-23T02:40:13.260Z,20.40
2019-03-23T02:42:41.224Z,22.45
2019-03-23T02:45:09.969Z,24.67
2019-03-23T02:47:37.953Z,24.12
2019-03-23T02:50:06.332Z,23.73
2019-03-23T02:52:34.371Z,23.20
2019-03-23T02:55:02.343Z,19.73
2019-03-23T02:57:30.325Z,16.27
2019-03-23T02:59:58.280Z,21.62
2019-03-23T03:02:26.260Z,21.20
2019-03-23T03:04:54.228Z,24.50
2019-03-23T03:07:22.213Z,19.57
2019-03-23T03:09:50.176Z,25.20
2019-03-23T03:12:18.158Z,25.30
2019-03-23T03:14:46.149Z,26.93
2019-03-23T03:17:14.112Z,25.75
2019-03-23T03:19:42.102Z,20.97
2019-03-23T03:22:10.083Z,19.02
2019-03-23T03:24:38.049Z,23.22
2019-03-23T03:27:06.028Z,25.90
2019-03-23T03:29:34.014Z,19.95
2019-03-23T03:32:01.965Z,22.40
2019-03-23T03:34:29.945Z,20.20
2019-03-23T03:36:57.904Z,25.32
2019-03-23T03:39:25.888Z,20.85
2019-03-23T03:41:53.860Z,17.73
2019-03-23T03:44:21.834Z,22.80
2019-03-23T03:46:49.800Z,16.57
2019-03-23T03:49:17.769Z,22.00
2019-03-23T03:51:45.763Z,22.75
2019-03-23T03:54:13.733Z,20.40
2019-03-23T03:56:41.718Z,19.92
2019-03-23T03:59:09.702Z,29.23
2019-03-23T04:01:37.687Z,20.27
2019-03-23T04:04:05.647Z,24.35
2019-03-23T04:06:33.612Z,21.60
2019-03-23T04:09:01.611Z,21.20
2019-03-23T04:11:29.580Z,21.50
2019-03-23T04:13:57.567Z,17.00
2019-03-23T04:16:25.529Z,13.25
2019-03-23T04:18:53.487Z,19.52
2019-03-23T04:21:21.476Z,17.02
2019-03-23T04:23:49.453Z,15.95
2019-03-23T04:26:17.437Z,20.82
2019-03-23T04:28:45.415Z,20.48
2019-03-23T04:33:42.684Z,18.55
2019-03-23T04:36:10.648Z,21.73
2019-03-23T04:38:38.633Z,23.05
2019-03-23T04:41:06.681Z,18.00
2019-03-23T04:43:34.758Z,30.08
2019-03-23T04:46:02.729Z,27.58
2019-03-23T04:48:30.717Z,25.80
2019-03-23T04:50:58.698Z,21.25
2019-03-23T04:53:26.668Z,30.95
2019-03-23T04:55:54.695Z,22.00
2019-03-23T04:58:22.655Z,23.10
2019-03-23T05:00:50.644Z,21.65
2019-03-23T05:03:18.683Z,21.12
2019-03-23T05:05:46.651Z,21.87
2019-03-23T05:08:14.644Z,18.57
2019-03-23T05:10:43.348Z,20.37
2019-03-23T05:13:11.323Z,21.10
2019-03-23T05:15:39.298Z,28.15
2019-03-23T05:18:07.269Z,21.90
2019-03-23T05:20:35.267Z,29.37
2019-03-23T05:23:03.265Z,24.30
2019-03-23T05:25:31.230Z,22.93
2019-03-23T05:27:59.204Z,21.05
2019-03-23T05:30:27.164Z,25.55
2019-03-23T05:32:55.139Z,21.93
2019-03-23T05:35:23.107Z,23.30
2019-03-23T05:37:51.083Z,22.50
2019-03-23T05:40:19.047Z,18.75
2019-03-23T05:42:47.055Z,22.40
2019-03-23T05:45:15.019Z,17.45
2019-03-23T05:47:43.017Z,23.22
2019-03-23T05:50:11.027Z,20.23
2019-03-23T05:52:39.045Z,19.23
2019-03-23T05:55:07.024Z,20.23
2019-03-23T05:57:34.984Z,20.30
2019-03-23T06:00:04.338Z,13.95
2019-03-23T06:02:32.299Z,14.50
2019-03-23T06:05:00.342Z,17.75
2019-03-23T06:07:28.363Z,14.18
2019-03-23T06:09:56.401Z,16.42
2019-03-23T06:12:24.370Z,17.60
2019-03-23T06:14:52.333Z,15.18
2019-03-23T06:17:20.335Z,15.03
2019-03-23T06:19:48.303Z,15.25
2019-03-23T06:22:16.263Z,16.20
2019-03-23T06:24:44.238Z,18.02
2019-03-23T06:27:12.212Z,17.10
2019-03-23T06:29:40.167Z,15.90
2019-03-23T06:32:08.140Z,20.23
2019-03-23T06:34:36.108Z,16.40
2019-03-23T06:37:04.093Z,15.23
2019-03-23T06:39:32.064Z,14.35
2019-03-23T06:42:00.030Z,14.43
2019-03-23T06:44:28.008Z,17.87
2019-03-23T06:46:55.972Z,13.58
2019-03-23T06:49:23.948Z,13.13
2019-03-23T06:51:51.911Z,18.30
2019-03-23T06:54:19.883Z,15.13
2019-03-23T06:56:47.939Z,17.77
2019-03-23T06:59:15.920Z,10.20
2019-03-23T07:01:43.920Z,11.80
2019-03-23T07:04:11.891Z,9.78
2019-03-23T07:06:39.871Z,13.43
2019-03-23T07:09:15.807Z,12.73
2019-03-23T07:11:37.561Z,12.33
2019-03-23T07:14:05.519Z,9.08
2019-03-23T07:19:44.336Z,11.70
2019-03-23T07:22:12.305Z,16.10
2019-03-23T07:24:40.313Z,13.78
2019-03-23T07:27:08.295Z,12.03
2019-03-23T07:29:36.255Z,11.60
2019-03-23T07:32:06.099Z,12.35
2019-03-23T07:34:33.919Z,15.03
2019-03-23T07:37:01.890Z,9.85
2019-03-23T07:39:30.619Z,12.10
2019-03-23T07:41:58.783Z,11.90
2019-03-23T07:44:26.786Z,9.58
2019-03-23T07:46:54.839Z,10.00
2019-03-23T07:49:22.808Z,10.35
2019-03-23T07:51:50.787Z,13.25
2019-03-23T07:54:18.755Z,12.70
2019-03-23T07:56:46.732Z,21.23
2019-03-23T07:59:14.696Z,10.90
2019-03-23T08:01:42.664Z,8.93
2019-03-23T08:04:10.667Z,13.03
2019-03-23T08:06:38.808Z,11.50
2019-03-23T08:09:06.779Z,12.07
2019-03-23T08:11:54.252Z,13.15
2019-03-23T08:14:22.229Z,15.20
2019-03-23T08:16:50.204Z,14.63
2019-03-23T08:19:18.264Z,14.78
2019-03-23T08:21:46.239Z,13.28
2019-03-23T08:24:14.205Z,19.67
2019-03-23T08:26:42.177Z,19.95
2019-03-23T08:29:10.151Z,16.62
2019-03-23T08:31:38.111Z,12.75
2019-03-23T08:34:06.104Z,14.68
2019-03-23T08:36:34.077Z,14.93
2019-03-23T08:39:02.039Z,14.80
2019-03-23T08:41:30.037Z,20.23
2019-03-23T08:43:58.006Z,14.13
2019-03-23T08:46:25.971Z,17.02
2019-03-23T08:48:53.972Z,17.37
2019-03-23T08:51:21.912Z,15.23
2019-03-23T08:53:49.891Z,15.45
2019-03-23T08:56:17.864Z,12.68
2019-03-23T08:58:45.404Z,16.95
2019-03-23T09:01:13.383Z,16.40
2019-03-23T09:03:51.788Z,19.85
2019-03-23T09:06:11.180Z,15.90
2019-03-23T09:08:39.155Z,17.12
2019-03-23T09:11:07.122Z,16.85
2019-03-23T09:13:40.511Z,17.37
2019-03-23T09:16:04.816Z,20.62
2019-03-23T09:18:32.798Z,17.75
2019-03-23T09:21:00.773Z,17.55
2019-03-23T09:23:28.783Z,21.80
2019-03-23T09:25:56.765Z,21.65
2019-03-23T09:28:24.732Z,23.12
2019-03-23T09:30:52.715Z,26.27
2019-03-23T09:33:20.716Z,31.48
2019-03-23T09:35:48.677Z,26.73
2019-03-23T09:38:16.660Z,27.05
2019-03-23T09:40:44.659Z,30.12
2019-03-23T09:43:12.629Z,30.02
2019-03-23T09:45:40.611Z,29.50
2019-03-23T09:48:08.584Z,32.20
2019-03-23T09:50:36.567Z,30.57
2019-03-23T09:53:04.554Z,28.32
2019-03-23T09:55:32.523Z,30.23
2019-03-23T09:58:00.487Z,29.77
2019-03-23T10:00:28.556Z,22.87
2019-03-23T10:02:56.523Z,22.95
2019-03-23T10:05:24.492Z,22.00
2019-03-23T10:07:52.512Z,20.12
2019-03-23T10:10:22.016Z,23.70
2019-03-23T10:12:50.266Z,23.02
2019-03-23T10:15:18.296Z,21.82
2019-03-23T10:17:46.266Z,19.40
2019-03-23T10:20:14.239Z,18.85
2019-03-23T10:22:42.231Z,21.90
2019-03-23T10:25:10.221Z,22.60
2019-03-23T10:27:38.179Z,24.98
2019-03-23T10:30:06.627Z,24.15
2019-03-23T10:32:34.636Z,20.40
2019-03-23T10:35:02.677Z,21.57
2019-03-23T10:37:30.667Z,22.40
2019-03-23T10:39:59.482Z,23.18
2019-03-23T10:42:27.460Z,21.57
2019-03-23T10:44:55.461Z,27.67
2019-03-23T10:47:24.196Z,22.27
2019-03-23T10:49:52.218Z,22.15
2019-03-23T10:52:20.207Z,23.30
2019-03-23T10:54:48.180Z,30.75
2019-03-23T10:57:16.151Z,27.02
2019-03-23T10:59:44.130Z,26.80
2019-03-23T11:02:12.103Z,24.10
2019-03-23T11:04:40.171Z,19.57
2019-03-23T11:07:08.140Z,23.22
2019-03-23T11:09:36.118Z,28.10
2019-03-23T11:12:04.092Z,26.65
2019-03-23T11:14:32.063Z,24.23
2019-03-23T11:17:00.027Z,25.72
2019-03-23T11:19:28.103Z,26.90
2019-03-23T11:21:56.207Z,26.90
2019-03-23T11:24:24.229Z,33.95
2019-03-23T11:26:52.212Z,32.85
2019-03-23T11:29:20.195Z,33.42
2019-03-23T11:31:48.184Z,29.10
2019-03-23T11:34:18.091Z,30.10
2019-03-23T11:36:45.856Z,32.95
2019-03-23T11:39:13.836Z,28.98
2019-03-23T11:41:41.801Z,41.95
2019-03-23T11:44:09.783Z,40.12
2019-03-23T11:46:37.794Z,46.05
2019-03-23T11:49:08.638Z,38.53
2019-03-23T11:51:36.612Z,38.88
2019-03-23T11:54:04.587Z,39.40
2019-03-23T11:56:32.553Z,41.73
2019-03-23T11:59:00.534Z,45.88
2019-03-23T12:01:28.569Z,38.28
2019-03-23T12:03:56.565Z,36.20
2019-03-23T12:06:24.540Z,46.25
2019-03-23T12:08:52.591Z,37.80
2019-03-23T12:11:20.569Z,37.42
2019-03-23T12:13:48.539Z,34.40
2019-03-23T12:16:16.509Z,38.55
2019-03-23T12:18:44.522Z,43.30
2019-03-23T12:21:12.507Z,44.27
2019-03-23T12:23:40.468Z,41.15
2019-03-23T12:26:08.436Z,43.05
2019-03-23T12:28:36.411Z,39.38
2019-03-23T12:31:04.396Z,44.65
2019-03-23T12:33:32.365Z,39.73
2019-03-23T12:36:00.377Z,43.23
2019-03-23T12:38:28.575Z,41.00
2019-03-23T12:40:56.572Z,43.50
2019-03-23T12:43:24.607Z,43.63
2019-03-23T12:45:52.703Z,38.95
2019-03-23T12:48:20.691Z,40.78
2019-03-23T12:50:48.631Z,41.25
2019-03-23T12:53:16.609Z,41.88
2019-03-23T12:55:44.666Z,45.23
2019-03-23T12:58:12.628Z,42.95
2019-03-23T13:00:40.624Z,44.55
2019-03-23T13:03:08.647Z,39.50
2019-03-23T13:05:36.663Z,41.58
2019-03-23T13:08:04.980Z,48.40
2019-03-23T13:10:32.951Z,47.00
2019-03-23T13:13:00.919Z,50.48
2019-03-23T13:15:29.176Z,52.20
2019-03-23T13:18:03.132Z,54.75
2019-03-23T13:20:31.322Z,53.10
2019-03-23T13:22:59.433Z,55.55
2019-03-23T13:25:27.456Z,53.23
2019-03-23T13:27:55.419Z,57.60
2019-03-23T13:30:23.387Z,52.60
2019-03-23T13:32:51.371Z,61.50
2019-03-23T13:35:19.446Z,62.35
2019-03-23T13:37:49.093Z,54.80
2019-03-23T13:40:17.125Z,61.55
2019-03-23T13:42:45.135Z,56.18
2019-03-23T13:45:13.147Z,53.95
2019-03-23T13:47:41.113Z,60.70
2019-03-23T13:50:09.604Z,59.35
2019-03-23T13:52:37.635Z,59.10
2019-03-23T13:55:05.871Z,59.55
2019-03-23T13:57:36.051Z,63.52
2019-03-23T14:00:05.228Z,65.40
2019-03-23T14:02:33.195Z,65.85
2019-03-23T14:05:01.185Z,66.10
2019-03-23T14:07:29.207Z,65.80
2019-03-23T14:09:57.180Z,59.83
2019-03-23T14:12:25.172Z,66.57
2019-03-23T14:14:53.163Z,64.75
2019-03-23T14:17:21.239Z,67.37
2019-03-23T14:19:49.201Z,61.35
2019-03-23T14:22:17.209Z,67.15
2019-03-23T14:24:45.189Z,64.27
2019-03-23T14:27:13.222Z,60.90
2019-03-23T14:29:41.212Z,73.42
2019-03-23T14:32:09.198Z,70.42
2019-03-23T14:34:37.414Z,66.45
2019-03-23T14:37:05.614Z,67.67
2019-03-23T14:39:33.575Z,67.12
2019-03-23T14:42:05.012Z,72.00
2019-03-23T14:44:31.244Z,70.78
2019-03-23T14:46:59.256Z,66.30
2019-03-23T14:49:27.224Z,69.42
2019-03-23T14:51:55.187Z,64.05
2019-03-23T14:54:23.235Z,68.25
2019-03-23T14:56:51.277Z,72.03
2019-03-23T14:59:19.304Z,71.82
2019-03-23T15:01:47.360Z,74.75
2019-03-23T15:04:15.333Z,76.37
2019-03-23T15:06:43.300Z,73.75
2019-03-23T15:09:11.272Z,73.62
2019-03-23T15:11:39.238Z,77.60
2019-03-23T15:14:07.374Z,80.60
2019-03-23T15:16:35.372Z,77.00
2019-03-23T15:19:03.333Z,83.20
2019-03-23T15:21:31.328Z,82.15
2019-03-23T15:23:59.298Z,87.60
2019-03-23T15:26:27.265Z,86.92
2019-03-23T15:28:55.253Z,78.25
2019-03-23T15:31:23.220Z,82.53
2019-03-23T15:33:51.223Z,92.05
2019-03-23T15:36:19.212Z,96.78
2019-03-23T15:38:47.182Z,104.17
2019-03-23T15:41:15.177Z,100.75
2019-03-23T15:43:43.162Z,108.20
2019-03-23T15:46:11.140Z,109.63
2019-03-23T15:48:39.115Z,115.42
2019-03-23T15:51:07.084Z,121.85
2019-03-23T15:53:35.051Z,113.83
2019-03-23T15:56:03.035Z,115.65
2019-03-23T15:58:31.344Z,117.42
2019-03-23T16:00:59.344Z,117.00
2019-03-23T16:03:27.311Z,122.13
2019-03-23T16:05:55.295Z,119.25
2019-03-23T16:08:23.275Z,116.73
2019-03-23T16:10:51.241Z,116.33
2019-03-23T16:13:19.243Z,123.62
2019-03-23T16:15:47.189Z,119.70
2019-03-23T16:18:15.172Z,120.28
2019-03-23T16:20:43.154Z,125.33
2019-03-23T16:23:11.139Z,117.67
2019-03-23T16:25:39.196Z,122.35
2019-03-23T16:28:07.179Z,126.42
2019-03-23T16:30:35.159Z,114.72
2019-03-23T16:33:03.129Z,110.68
2019-03-23T16:35:31.123Z,117.17
2019-03-23T16:37:59.114Z,111.90
2019-03-23T16:40:27.084Z,107.22
2019-03-23T16:42:55.055Z,101.82
2019-03-23T16:45:23.024Z,85.55
2019-03-23T16:47:51.016Z,83.72
2019-03-23T16:50:19.071Z,78.28
2019-03-23T16:52:47.037Z,78.05
2019-03-23T16:55:14.999Z,82.75
2019-03-23T16:57:42.960Z,80.97
2019-03-23T17:00:11.604Z,76.35
2019-03-23T17:02:39.582Z,80.05
2019-03-23T17:05:07.549Z,76.35
2019-03-23T17:07:35.528Z,80.80
2019-03-23T17:10:04.164Z,83.87
2019-03-23T17:12:32.139Z,76.65
2019-03-23T17:15:00.305Z,82.67
2019-03-23T17:17:28.402Z,80.87
2019-03-23T17:19:56.411Z,83.70
2019-03-23T17:22:24.371Z,82.30
2019-03-23T17:24:52.340Z,83.00
2019-03-23T17:27:20.405Z,85.42
2019-03-23T17:29:48.371Z,83.07
2019-03-23T17:32:16.343Z,84.35
2019-03-23T17:34:44.340Z,74.97
2019-03-23T17:37:12.312Z,80.65
2019-03-23T17:39:40.291Z,74.37
2019-03-23T17:42:08.268Z,79.47
2019-03-23T17:44:36.258Z,75.80
2019-03-23T17:47:04.227Z,72.90
2019-03-23T17:49:32.187Z,75.80
2019-03-23T17:52:00.180Z,75.00
2019-03-23T17:54:28.187Z,70.42
2019-03-23T17:56:56.263Z,71.80
2019-03-23T17:59:24.252Z,73.42
2019-03-23T18:01:52.215Z,75.92
2019-03-23T18:04:20.220Z,71.47
2019-03-23T18:06:48.188Z,66.37
2019-03-23T18:09:16.191Z,68.17
2019-03-23T18:11:44.148Z,64.07
2019-03-23T18:14:12.135Z,66.28
2019-03-23T18:16:40.124Z,68.30
2019-03-23T18:19:08.114Z,64.00
2019-03-23T18:21:36.095Z,66.97
2019-03-23T18:24:04.087Z,71.45
2019-03-23T18:26:32.361Z,66.33
2019-03-23T18:29:00.340Z,69.62
2019-03-23T18:31:28.369Z,67.47
2019-03-23T18:33:56.314Z,67.60
2019-03-23T18:36:24.291Z,70.62
2019-03-23T18:38:52.260Z,67.40
2019-03-23T18:41:20.231Z,69.42
2019-03-23T18:43:48.217Z,70.25
2019-03-23T18:46:16.287Z,66.77
2019-03-23T18:48:44.426Z,112.68
2019-03-23T18:51:12.594Z,91.53
2019-03-23T18:53:40.895Z,67.20
2019-03-23T18:56:09.075Z,66.45
2019-03-23T18:58:37.161Z,72.55
2019-03-23T19:01:05.336Z,69.17
2019-03-23T19:03:33.588Z,64.22
2019-03-23T19:06:03.768Z,65.95
2019-03-23T19:08:31.998Z,66.15
2019-03-23T19:11:02.697Z,61.05
2019-03-23T19:16:02.421Z,73.05
2019-03-23T19:20:58.370Z,65.75
2019-03-23T19:23:26.638Z,59.75
2019-03-23T19:25:57.215Z,61.80
2019-03-23T19:28:27.021Z,64.00
2019-03-23T19:30:57.589Z,64.00
2019-03-23T19:35:53.286Z,61.02
2019-03-23T19:38:21.284Z,67.58
2019-03-23T19:40:49.285Z,58.23
2019-03-23T19:43:36.801Z,57.10
2019-03-23T19:46:06.152Z,58.28
2019-03-23T19:48:34.215Z,58.75
2019-03-23T19:51:03.805Z,58.95
2019-03-23T19:53:31.974Z,56.30
2019-03-23T19:55:59.988Z,53.23
2019-03-23T19:58:27.978Z,66.07
2019-03-23T20:00:55.964Z,60.70
2019-03-23T20:03:24.454Z,61.15
2019-03-23T20:05:52.482Z,59.67
2019-03-23T20:08:20.675Z,57.62
2019-03-23T20:10:48.707Z,61.63
2019-03-23T20:13:16.904Z,65.03
2019-03-23T20:15:44.991Z,60.12
2019-03-23T20:18:13.082Z,90.28
2019-03-23T20:20:41.142Z,190.60
2019-03-23T20:23:09.115Z,65.45
2019-03-23T20:25:37.149Z,58.52
2019-03-23T20:28:05.219Z,62.38
2019-03-23T20:30:33.179Z,63.98
2019-03-23T20:33:01.276Z,68.07
2019-03-23T20:35:29.432Z,73.70
2019-03-23T20:37:57.533Z,66.90
2019-03-23T20:40:25.777Z,71.95
2019-03-23T20:42:53.810Z,70.90
2019-03-23T20:45:28.438Z,70.70
2019-03-23T20:47:56.513Z,75.52
2019-03-23T20:50:24.566Z,74.95
2019-03-23T20:52:52.628Z,78.28
2019-03-23T20:55:26.992Z,86.15
2019-03-23T20:57:55.243Z,77.85
2019-03-23T21:00:23.228Z,83.45
2019-03-23T21:02:51.270Z,84.55
2019-03-23T21:05:19.270Z,78.42
2019-03-23T21:07:47.359Z,96.50
2019-03-23T21:10:15.493Z,86.53
2019-03-23T21:12:43.488Z,83.15
2019-03-23T21:15:11.600Z,189.87
2019-03-23T21:17:50.701Z,164.57
2019-03-23T21:20:09.767Z,100.25
2019-03-23T21:22:40.454Z,98.03
2019-03-23T21:27:35.905Z,92.15
2019-03-23T21:30:05.643Z,98.90
2019-03-23T21:32:33.615Z,97.50
2019-03-23T21:35:01.747Z,95.17
2019-03-23T21:37:29.915Z,89.87
2019-03-23T21:39:57.957Z,99.20
2019-03-23T21:42:25.940Z,90.90
2019-03-23T21:44:53.980Z,106.20
2019-03-23T21:47:21.968Z,104.07
2019-03-23T21:49:49.940Z,100.72
2019-03-23T21:52:17.913Z,106.47
2019-03-23T21:54:45.923Z,103.85
2019-03-23T21:57:13.893Z,114.45
2019-03-23T21:59:41.930Z,121.75
2019-03-23T22:02:09.957Z,111.97
2019-03-23T22:04:37.934Z,110.05
2019-03-23T22:07:05.920Z,107.20
2019-03-23T22:09:33.889Z,116.40
2019-03-23T22:12:01.869Z,119.65
2019-03-23T22:14:29.921Z,117.20
2019-03-23T22:16:57.894Z,115.62
2019-03-23T22:19:26.038Z,181.85
2019-03-23T22:21:54.104Z,230.27
2019-03-23T22:24:22.116Z,127.35
2019-03-23T22:26:50.100Z,118.17
2019-03-23T22:29:18.214Z,117.67
2019-03-23T22:31:46.283Z,114.60
2019-03-23T22:34:14.320Z,111.70
2019-03-23T22:36:42.426Z,113.88
2019-03-23T22:39:10.429Z,124.82
2019-03-23T22:41:38.411Z,136.85
2019-03-23T22:44:06.380Z,129.32
2019-03-23T22:46:34.370Z,121.02
2019-03-23T22:49:02.351Z,129.12
2019-03-23T22:51:30.317Z,136.00
2019-03-23T22:53:58.352Z,133.60
2019-03-23T22:56:26.345Z,123.70
2019-03-23T22:58:54.311Z,133.30
2019-03-23T23:01:22.292Z,134.30
2019-03-23T23:03:50.259Z,136.82
2019-03-23T23:06:18.243Z,140.07
2019-03-23T23:08:46.272Z,137.28
2019-03-23T23:11:14.259Z,138.05
2019-03-23T23:13:42.275Z,146.45
2019-03-23T23:16:10.207Z,141.80
2019-03-23T23:18:38.316Z,138.03
2019-03-23T23:21:06.312Z,151.15
2019-03-23T23:23:34.300Z,140.65
2019-03-23T23:26:02.306Z,156.63
2019-03-23T23:28:30.339Z,144.53
2019-03-23T23:30:58.347Z,151.70
2019-03-23T23:33:26.405Z,153.23
2019-03-23T23:35:54.380Z,157.37
2019-03-23T23:38:22.348Z,153.60
2019-03-23T23:40:50.387Z,151.55
2019-03-23T23:43:18.363Z,154.65
2019-03-23T23:45:46.353Z,152.62
2019-03-23T23:48:14.332Z,157.00
2019-03-23T23:50:42.331Z,177.27
2019-03-23T23:53:10.319Z,169.17
2019-03-23T23:55:38.292Z,158.27
2019-03-23T23:58:06.283Z,154.50
